sensor_id;sensor_type;location;lat;lon;timestamp;P1;durP1;ratioP1;P2;durP2;ratioP2
8478;SDS011;4276;49.354;6.804;2023-06-24T00:00:14;4.10;;;3.70;;
8478;SDS011;4276;49.354;6.804;2023-06-24T00:02:42;3.75;;;3.45;;
8478;SDS011;4276;49.354;6.804;2023-06-24T00:05:11;3.80;;;3.50;;
8478;SDS011;4276;49.354;6.804;2023-06-24T00:07:38;3.78;;;3.30;;
8478;SDS011;4276;49.354;6.804;2023-06-24T00:10:12;3.85;;;3.50;;
8478;SDS011;4276;49.354;6.804;2023-06-24T00:12:40;4.00;;;3.70;;
8478;SDS011;4276;49.354;6.804;2023-06-24T00:15:08;3.65;;;3.35;;
8478;SDS011;4276;49.354;6.804;2023-06-24T00:17:38;4.25;;;3.95;;
8478;SDS011;4276;49.354;6.804;2023-06-24T00:20:04;3.90;;;3.60;;
8478;SDS011;4276;49.354;6.804;2023-06-24T00:22:33;3.50;;;3.30;;
8478;SDS011;4276;49.354;6.804;2023-06-24T00:25:00;4.13;;;3.83;;
8478;SDS011;4276;49.354;6.804;2023-06-24T00:27:26;3.97;;;3.67;;
8478;SDS011;4276;49.354;6.804;2023-06-24T00:29:53;3.83;;;3.42;;
8478;SDS011;4276;49.354;6.804;2023-06-24T00:32:19;3.70;;;3.40;;
8478;SDS011;4276;49.354;6.804;2023-06-24T00:34:46;3.90;;;3.60;;
8478;SDS011;4276;49.354;6.804;2023-06-24T00:37:14;4.30;;;4.00;;
8478;SDS011;4276;49.354;6.804;2023-06-24T00:39:40;4.43;;;4.13;;
8478;SDS011;4276;49.354;6.804;2023-06-24T00:42:07;4.10;;;3.65;;
8478;SDS011;4276;49.354;6.804;2023-06-24T00:44:33;3.88;;;3.58;;
8478;SDS011;4276;49.354;6.804;2023-06-24T00:47:00;4.10;;;3.80;;
8478;SDS011;4276;49.354;6.804;2023-06-24T00:49:28;3.97;;;3.63;;
8478;SDS011;4276;49.354;6.804;2023-06-24T00:51:54;4.35;;;4.05;;
8478;SDS011;4276;49.354;6.804;2023-06-24T00:54:21;5.03;;;4.63;;
8478;SDS011;4276;49.354;6.804;2023-06-24T00:56:48;4.82;;;4.53;;
8478;SDS011;4276;49.354;6.804;2023-06-24T00:59:15;4.60;;;4.20;;
8478;SDS011;4276;49.354;6.804;2023-06-24T01:01:42;4.03;;;3.63;;
8478;SDS011;4276;49.354;6.804;2023-06-24T01:04:11;4.78;;;4.25;;
8478;SDS011;4276;49.354;6.804;2023-06-24T01:06:38;4.57;;;3.80;;
8478;SDS011;4276;49.354;6.804;2023-06-24T01:09:10;4.15;;;3.95;;
8478;SDS011;4276;49.354;6.804;2023-06-24T01:11:36;4.18;;;3.88;;
8478;SDS011;4276;49.354;6.804;2023-06-24T01:14:03;3.92;;;3.65;;
8478;SDS011;4276;49.354;6.804;2023-06-24T01:22:04;4.45;;;4.05;;
8478;SDS011;4276;49.354;6.804;2023-06-24T01:27:24;4.47;;;4.07;;
8478;SDS011;4276;49.354;6.804;2023-06-24T01:30:03;4.43;;;4.03;;
8478;SDS011;4276;49.354;6.804;2023-06-24T01:32:59;4.07;;;3.78;;
8478;SDS011;4276;49.354;6.804;2023-06-24T01:35:31;4.50;;;4.20;;
8478;SDS011;4276;49.354;6.804;2023-06-24T01:38:01;5.05;;;4.60;;
8478;SDS011;4276;49.354;6.804;2023-06-24T01:40:39;4.22;;;3.92;;
8478;SDS011;4276;49.354;6.804;2023-06-24T01:43:09;4.57;;;4.28;;
8478;SDS011;4276;49.354;6.804;2023-06-24T01:45:37;4.82;;;4.43;;
8478;SDS011;4276;49.354;6.804;2023-06-24T01:48:25;4.43;;;4.10;;
8478;SDS011;4276;49.354;6.804;2023-06-24T01:51:04;4.07;;;3.70;;
8478;SDS011;4276;49.354;6.804;2023-06-24T01:53:35;4.35;;;3.95;;
8478;SDS011;4276;49.354;6.804;2023-06-24T01:56:05;4.25;;;3.95;;
8478;SDS011;4276;49.354;6.804;2023-06-24T01:58:33;3.67;;;3.47;;
8478;SDS011;4276;49.354;6.804;2023-06-24T02:01:02;4.38;;;3.97;;
8478;SDS011;4276;49.354;6.804;2023-06-24T02:03:30;4.40;;;4.05;;
8478;SDS011;4276;49.354;6.804;2023-06-24T02:05:58;4.25;;;3.92;;
8478;SDS011;4276;49.354;6.804;2023-06-24T02:08:25;4.50;;;4.20;;
8478;SDS011;4276;49.354;6.804;2023-06-24T02:10:52;4.28;;;3.90;;
8478;SDS011;4276;49.354;6.804;2023-06-24T02:13:19;4.30;;;4.00;;
8478;SDS011;4276;49.354;6.804;2023-06-24T02:15:46;4.20;;;3.90;;
8478;SDS011;4276;49.354;6.804;2023-06-24T02:18:13;4.10;;;3.80;;
8478;SDS011;4276;49.354;6.804;2023-06-24T02:20:41;4.05;;;3.75;;
8478;SDS011;4276;49.354;6.804;2023-06-24T02:23:10;4.32;;;4.03;;
8478;SDS011;4276;49.354;6.804;2023-06-24T02:25:37;4.20;;;3.90;;
8478;SDS011;4276;49.354;6.804;2023-06-24T02:28:07;4.00;;;3.72;;
8478;SDS011;4276;49.354;6.804;2023-06-24T02:30:35;4.20;;;3.85;;
8478;SDS011;4276;49.354;6.804;2023-06-24T02:33:03;4.20;;;3.80;;
8478;SDS011;4276;49.354;6.804;2023-06-24T02:35:30;4.30;;;4.00;;
8478;SDS011;4276;49.354;6.804;2023-06-24T02:37:56;4.15;;;3.78;;
8478;SDS011;4276;49.354;6.804;2023-06-24T02:40:23;4.38;;;4.07;;
8478;SDS011;4276;49.354;6.804;2023-06-24T02:42:50;3.88;;;3.58;;
8478;SDS011;4276;49.354;6.804;2023-06-24T02:45:16;3.97;;;3.67;;
8478;SDS011;4276;49.354;6.804;2023-06-24T02:47:43;4.82;;;3.65;;
8478;SDS011;4276;49.354;6.804;2023-06-24T02:50:11;3.90;;;3.60;;
8478;SDS011;4276;49.354;6.804;2023-06-24T02:52:38;4.20;;;3.90;;
8478;SDS011;4276;49.354;6.804;2023-06-24T02:55:05;4.43;;;4.13;;
8478;SDS011;4276;49.354;6.804;2023-06-24T02:57:33;4.15;;;3.85;;
8478;SDS011;4276;49.354;6.804;2023-06-24T03:00:00;4.03;;;3.80;;
8478;SDS011;4276;49.354;6.804;2023-06-24T03:02:34;3.92;;;3.63;;
8478;SDS011;4276;49.354;6.804;2023-06-24T03:05:01;4.18;;;3.88;;
8478;SDS011;4276;49.354;6.804;2023-06-24T03:07:28;4.78;;;4.47;;
8478;SDS011;4276;49.354;6.804;2023-06-24T03:09:56;4.57;;;4.18;;
8478;SDS011;4276;49.354;6.804;2023-06-24T03:12:24;4.78;;;4.47;;
8478;SDS011;4276;49.354;6.804;2023-06-24T03:14:50;4.60;;;4.20;;
8478;SDS011;4276;49.354;6.804;2023-06-24T03:17:17;5.00;;;4.60;;
8478;SDS011;4276;49.354;6.804;2023-06-24T03:19:43;7.00;;;4.50;;
8478;SDS011;4276;49.354;6.804;2023-06-24T03:22:10;4.47;;;4.13;;
8478;SDS011;4276;49.354;6.804;2023-06-24T03:24:36;4.05;;;3.60;;
8478;SDS011;4276;49.354;6.804;2023-06-24T03:27:03;4.25;;;3.85;;
8478;SDS011;4276;49.354;6.804;2023-06-24T03:29:30;4.53;;;4.10;;
8478;SDS011;4276;49.354;6.804;2023-06-24T03:31:56;4.22;;;3.92;;
8478;SDS011;4276;49.354;6.804;2023-06-24T03:34:23;4.43;;;4.13;;
8478;SDS011;4276;49.354;6.804;2023-06-24T03:36:49;4.63;;;4.32;;
8478;SDS011;4276;49.354;6.804;2023-06-24T03:39:16;4.43;;;4.07;;
8478;SDS011;4276;49.354;6.804;2023-06-24T03:41:42;4.93;;;4.53;;
8478;SDS011;4276;49.354;6.804;2023-06-24T03:44:09;4.40;;;4.10;;
8478;SDS011;4276;49.354;6.804;2023-06-24T03:46:35;4.68;;;4.38;;
8478;SDS011;4276;49.354;6.804;2023-06-24T03:49:02;5.28;;;4.88;;
8478;SDS011;4276;49.354;6.804;2023-06-24T03:51:28;4.43;;;3.95;;
8478;SDS011;4276;49.354;6.804;2023-06-24T03:53:55;5.10;;;4.70;;
8478;SDS011;4276;49.354;6.804;2023-06-24T03:56:22;4.57;;;4.28;;
8478;SDS011;4276;49.354;6.804;2023-06-24T03:58:48;4.50;;;4.20;;
8478;SDS011;4276;49.354;6.804;2023-06-24T04:01:15;4.68;;;4.35;;
8478;SDS011;4276;49.354;6.804;2023-06-24T04:03:45;4.00;;;3.80;;
8478;SDS011;4276;49.354;6.804;2023-06-24T04:06:12;5.47;;;4.97;;
8478;SDS011;4276;49.354;6.804;2023-06-24T04:08:39;4.32;;;4.03;;
8478;SDS011;4276;49.354;6.804;2023-06-24T04:11:05;4.35;;;4.00;;
8478;SDS011;4276;49.354;6.804;2023-06-24T04:13:33;4.53;;;4.13;;
8478;SDS011;4276;49.354;6.804;2023-06-24T04:16:01;4.90;;;4.50;;
8478;SDS011;4276;49.354;6.804;2023-06-24T04:18:27;4.53;;;4.13;;
8478;SDS011;4276;49.354;6.804;2023-06-24T04:20:54;4.80;;;4.50;;
8478;SDS011;4276;49.354;6.804;2023-06-24T04:23:21;4.47;;;4.07;;
8478;SDS011;4276;49.354;6.804;2023-06-24T04:25:47;4.05;;;3.78;;
8478;SDS011;4276;49.354;6.804;2023-06-24T04:28:14;4.63;;;4.22;;
8478;SDS011;4276;49.354;6.804;2023-06-24T04:30:40;5.13;;;4.63;;
8478;SDS011;4276;49.354;6.804;2023-06-24T04:33:07;4.55;;;4.25;;
8478;SDS011;4276;49.354;6.804;2023-06-24T04:35:33;4.15;;;3.83;;
8478;SDS011;4276;49.354;6.804;2023-06-24T04:38:00;5.45;;;4.20;;
8478;SDS011;4276;49.354;6.804;2023-06-24T04:40:27;4.53;;;4.13;;
8478;SDS011;4276;49.354;6.804;2023-06-24T04:42:53;4.60;;;4.30;;
8478;SDS011;4276;49.354;6.804;2023-06-24T04:45:20;4.10;;;3.80;;
8478;SDS011;4276;49.354;6.804;2023-06-24T04:47:47;4.68;;;4.15;;
8478;SDS011;4276;49.354;6.804;2023-06-24T04:50:14;4.65;;;4.10;;
8478;SDS011;4276;49.354;6.804;2023-06-24T04:52:40;4.20;;;3.90;;
8478;SDS011;4276;49.354;6.804;2023-06-24T04:55:07;4.90;;;4.40;;
8478;SDS011;4276;49.354;6.804;2023-06-24T04:57:34;4.43;;;4.13;;
8478;SDS011;4276;49.354;6.804;2023-06-24T05:00:00;4.32;;;3.97;;
8478;SDS011;4276;49.354;6.804;2023-06-24T05:02:27;4.20;;;3.90;;
8478;SDS011;4276;49.354;6.804;2023-06-24T05:04:54;4.57;;;4.28;;
8478;SDS011;4276;49.354;6.804;2023-06-24T05:07:20;4.20;;;4.00;;
8478;SDS011;4276;49.354;6.804;2023-06-24T05:09:47;4.88;;;4.57;;
8478;SDS011;4276;49.354;6.804;2023-06-24T05:12:14;4.82;;;4.40;;
8478;SDS011;4276;49.354;6.804;2023-06-24T05:14:41;4.40;;;4.10;;
8478;SDS011;4276;49.354;6.804;2023-06-24T05:17:07;4.80;;;4.45;;
8478;SDS011;4276;49.354;6.804;2023-06-24T05:19:34;4.03;;;3.80;;
8478;SDS011;4276;49.354;6.804;2023-06-24T05:22:00;4.50;;;4.20;;
8478;SDS011;4276;49.354;6.804;2023-06-24T05:24:27;4.50;;;4.10;;
8478;SDS011;4276;49.354;6.804;2023-06-24T05:26:53;5.03;;;4.28;;
8478;SDS011;4276;49.354;6.804;2023-06-24T05:29:20;4.63;;;4.25;;
8478;SDS011;4276;49.354;6.804;2023-06-24T05:31:46;4.22;;;3.90;;
8478;SDS011;4276;49.354;6.804;2023-06-24T05:34:13;4.32;;;4.03;;
8478;SDS011;4276;49.354;6.804;2023-06-24T05:36:39;3.80;;;3.60;;
8478;SDS011;4276;49.354;6.804;2023-06-24T05:39:06;4.00;;;3.80;;
8478;SDS011;4276;49.354;6.804;2023-06-24T05:41:34;4.43;;;4.13;;
8478;SDS011;4276;49.354;6.804;2023-06-24T05:44:02;4.47;;;4.18;;
8478;SDS011;4276;49.354;6.804;2023-06-24T05:46:29;4.28;;;3.95;;
8478;SDS011;4276;49.354;6.804;2023-06-24T05:48:56;4.25;;;3.95;;
8478;SDS011;4276;49.354;6.804;2023-06-24T05:51:22;4.22;;;3.92;;
8478;SDS011;4276;49.354;6.804;2023-06-24T05:53:49;4.40;;;4.00;;
8478;SDS011;4276;49.354;6.804;2023-06-24T05:56:16;3.63;;;3.42;;
8478;SDS011;4276;49.354;6.804;2023-06-24T05:58:42;4.03;;;3.72;;
8478;SDS011;4276;49.354;6.804;2023-06-24T06:01:10;4.15;;;3.85;;
8478;SDS011;4276;49.354;6.804;2023-06-24T06:03:36;4.25;;;3.95;;
8478;SDS011;4276;49.354;6.804;2023-06-24T06:06:03;4.10;;;3.72;;
8478;SDS011;4276;49.354;6.804;2023-06-24T06:08:30;4.53;;;4.15;;
8478;SDS011;4276;49.354;6.804;2023-06-24T06:10:56;4.22;;;3.85;;
8478;SDS011;4276;49.354;6.804;2023-06-24T06:13:23;3.70;;;3.40;;
8478;SDS011;4276;49.354;6.804;2023-06-24T06:15:49;4.10;;;3.80;;
8478;SDS011;4276;49.354;6.804;2023-06-24T06:18:15;3.97;;;3.67;;
8478;SDS011;4276;49.354;6.804;2023-06-24T06:20:42;4.30;;;3.90;;
8478;SDS011;4276;49.354;6.804;2023-06-24T06:23:08;3.65;;;3.35;;
8478;SDS011;4276;49.354;6.804;2023-06-24T06:25:35;3.95;;;3.65;;
8478;SDS011;4276;49.354;6.804;2023-06-24T06:28:04;3.85;;;3.55;;
8478;SDS011;4276;49.354;6.804;2023-06-24T06:30:30;4.03;;;3.72;;
8478;SDS011;4276;49.354;6.804;2023-06-24T06:32:57;4.18;;;3.88;;
8478;SDS011;4276;49.354;6.804;2023-06-24T06:35:24;3.90;;;3.60;;
8478;SDS011;4276;49.354;6.804;2023-06-24T06:37:51;4.00;;;3.80;;
8478;SDS011;4276;49.354;6.804;2023-06-24T06:40:22;3.97;;;3.70;;
8478;SDS011;4276;49.354;6.804;2023-06-24T06:42:49;4.35;;;3.92;;
8478;SDS011;4276;49.354;6.804;2023-06-24T06:45:15;3.45;;;3.25;;
8478;SDS011;4276;49.354;6.804;2023-06-24T06:47:43;4.03;;;3.72;;
8478;SDS011;4276;49.354;6.804;2023-06-24T06:50:10;4.00;;;3.72;;
8478;SDS011;4276;49.354;6.804;2023-06-24T06:52:37;3.55;;;3.35;;
8478;SDS011;4276;49.354;6.804;2023-06-24T06:55:04;4.20;;;3.90;;
8478;SDS011;4276;49.354;6.804;2023-06-24T06:57:31;3.65;;;3.45;;
8478;SDS011;4276;49.354;6.804;2023-06-24T06:59:58;4.32;;;3.85;;
8478;SDS011;4276;49.354;6.804;2023-06-24T07:02:24;3.70;;;3.40;;
8478;SDS011;4276;49.354;6.804;2023-06-24T07:04:51;4.60;;;4.10;;
8478;SDS011;4276;49.354;6.804;2023-06-24T07:07:17;3.70;;;3.50;;
8478;SDS011;4276;49.354;6.804;2023-06-24T07:09:44;3.92;;;3.70;;
8478;SDS011;4276;49.354;6.804;2023-06-24T07:12:12;3.63;;;3.33;;
8478;SDS011;4276;49.354;6.804;2023-06-24T07:14:39;4.13;;;3.83;;
8478;SDS011;4276;49.354;6.804;2023-06-24T07:17:06;4.05;;;3.75;;
8478;SDS011;4276;49.354;6.804;2023-06-24T07:19:33;4.50;;;3.85;;
8478;SDS011;4276;49.354;6.804;2023-06-24T07:22:00;4.55;;;4.18;;
8478;SDS011;4276;49.354;6.804;2023-06-24T07:24:26;3.45;;;3.25;;
8478;SDS011;4276;49.354;6.804;2023-06-24T07:26:53;4.43;;;4.03;;
8478;SDS011;4276;49.354;6.804;2023-06-24T07:29:19;4.32;;;3.92;;
8478;SDS011;4276;49.354;6.804;2023-06-24T07:31:46;4.10;;;3.80;;
8478;SDS011;4276;49.354;6.804;2023-06-24T07:34:13;3.88;;;3.42;;
8478;SDS011;4276;49.354;6.804;2023-06-24T07:36:39;4.47;;;4.07;;
8478;SDS011;4276;49.354;6.804;2023-06-24T07:39:06;4.07;;;3.80;;
8478;SDS011;4276;49.354;6.804;2023-06-24T07:41:32;4.00;;;3.67;;
8478;SDS011;4276;49.354;6.804;2023-06-24T07:43:59;4.32;;;3.92;;
8478;SDS011;4276;49.354;6.804;2023-06-24T07:46:26;3.78;;;3.50;;
8478;SDS011;4276;49.354;6.804;2023-06-24T07:48:54;6.05;;;3.80;;
8478;SDS011;4276;49.354;6.804;2023-06-24T07:51:20;3.95;;;3.65;;
8478;SDS011;4276;49.354;6.804;2023-06-24T07:53:47;5.10;;;4.65;;
8478;SDS011;4276;49.354;6.804;2023-06-24T07:56:13;3.83;;;3.53;;
8478;SDS011;4276;49.354;6.804;2023-06-24T07:58:40;4.72;;;4.28;;
8478;SDS011;4276;49.354;6.804;2023-06-24T08:01:06;4.68;;;4.30;;
8478;SDS011;4276;49.354;6.804;2023-06-24T08:03:33;4.80;;;4.40;;
8478;SDS011;4276;49.354;6.804;2023-06-24T08:06:00;5.22;;;3.78;;
8478;SDS011;4276;49.354;6.804;2023-06-24T08:08:27;4.75;;;4.13;;
8478;SDS011;4276;49.354;6.804;2023-06-24T08:10:53;4.75;;;4.25;;
8478;SDS011;4276;49.354;6.804;2023-06-24T08:13:20;4.03;;;3.72;;
8478;SDS011;4276;49.354;6.804;2023-06-24T08:15:46;5.18;;;4.25;;
8478;SDS011;4276;49.354;6.804;2023-06-24T08:18:13;4.05;;;3.75;;
8478;SDS011;4276;49.354;6.804;2023-06-24T08:20:39;4.55;;;4.15;;
8478;SDS011;4276;49.354;6.804;2023-06-24T08:23:06;4.00;;;3.80;;
8478;SDS011;4276;49.354;6.804;2023-06-24T08:25:32;4.60;;;4.30;;
8478;SDS011;4276;49.354;6.804;2023-06-24T08:28:00;4.45;;;4.15;;
8478;SDS011;4276;49.354;6.804;2023-06-24T08:30:26;4.55;;;4.20;;
8478;SDS011;4276;49.354;6.804;2023-06-24T08:32:53;4.50;;;3.88;;
8478;SDS011;4276;49.354;6.804;2023-06-24T08:35:19;4.30;;;3.90;;
8478;SDS011;4276;49.354;6.804;2023-06-24T08:37:46;4.07;;;3.70;;
8478;SDS011;4276;49.354;6.804;2023-06-24T08:40:12;4.07;;;3.78;;
8478;SDS011;4276;49.354;6.804;2023-06-24T08:42:39;4.50;;;4.10;;
8478;SDS011;4276;49.354;6.804;2023-06-24T08:45:05;3.90;;;3.60;;
8478;SDS011;4276;49.354;6.804;2023-06-24T08:47:32;3.95;;;3.60;;
8478;SDS011;4276;49.354;6.804;2023-06-24T08:50:01;3.78;;;3.47;;
8478;SDS011;4276;49.354;6.804;2023-06-24T08:52:30;4.53;;;4.20;;
8478;SDS011;4276;49.354;6.804;2023-06-24T08:54:58;4.00;;;3.70;;
8478;SDS011;4276;49.354;6.804;2023-06-24T08:57:26;4.72;;;4.40;;
8478;SDS011;4276;49.354;6.804;2023-06-24T08:59:52;4.68;;;4.10;;
8478;SDS011;4276;49.354;6.804;2023-06-24T09:02:19;4.10;;;3.63;;
8478;SDS011;4276;49.354;6.804;2023-06-24T09:04:46;4.00;;;3.75;;
8478;SDS011;4276;49.354;6.804;2023-06-24T09:07:13;4.30;;;4.00;;
8478;SDS011;4276;49.354;6.804;2023-06-24T09:09:43;4.32;;;4.03;;
8478;SDS011;4276;49.354;6.804;2023-06-24T09:12:14;4.30;;;4.00;;
8478;SDS011;4276;49.354;6.804;2023-06-24T09:14:42;4.10;;;3.83;;
8478;SDS011;4276;49.354;6.804;2023-06-24T09:17:14;4.25;;;3.95;;
8478;SDS011;4276;49.354;6.804;2023-06-24T09:19:40;4.47;;;4.18;;
8478;SDS011;4276;49.354;6.804;2023-06-24T09:22:08;4.28;;;3.95;;
8478;SDS011;4276;49.354;6.804;2023-06-24T09:24:42;4.05;;;3.75;;
8478;SDS011;4276;49.354;6.804;2023-06-24T09:27:13;3.53;;;3.22;;
8478;SDS011;4276;49.354;6.804;2023-06-24T09:29:40;4.50;;;4.10;;
8478;SDS011;4276;49.354;6.804;2023-06-24T09:32:08;4.28;;;3.92;;
8478;SDS011;4276;49.354;6.804;2023-06-24T09:34:35;3.75;;;3.47;;
8478;SDS011;4276;49.354;6.804;2023-06-24T09:37:02;3.30;;;3.00;;
8478;SDS011;4276;49.354;6.804;2023-06-24T09:39:34;3.45;;;3.20;;
8478;SDS011;4276;49.354;6.804;2023-06-24T09:42:04;4.47;;;3.60;;
8478;SDS011;4276;49.354;6.804;2023-06-24T09:44:33;4.03;;;3.33;;
8478;SDS011;4276;49.354;6.804;2023-06-24T09:46:59;3.95;;;3.50;;
8478;SDS011;4276;49.354;6.804;2023-06-24T09:49:26;4.03;;;3.38;;
8478;SDS011;4276;49.354;6.804;2023-06-24T09:51:56;3.65;;;3.33;;
8478;SDS011;4276;49.354;6.804;2023-06-24T09:54:26;3.58;;;3.38;;
8478;SDS011;4276;49.354;6.804;2023-06-24T09:57:01;3.50;;;3.20;;
8478;SDS011;4276;49.354;6.804;2023-06-24T09:59:29;3.53;;;3.20;;
8478;SDS011;4276;49.354;6.804;2023-06-24T10:01:56;3.55;;;3.25;;
8478;SDS011;4276;49.354;6.804;2023-06-24T10:04:24;3.58;;;3.38;;
8478;SDS011;4276;49.354;6.804;2023-06-24T10:06:51;3.50;;;3.30;;
8478;SDS011;4276;49.354;6.804;2023-06-24T10:09:17;3.72;;;3.50;;
8478;SDS011;4276;49.354;6.804;2023-06-24T10:11:46;3.90;;;3.50;;
8478;SDS011;4276;49.354;6.804;2023-06-24T10:14:16;3.58;;;3.38;;
8478;SDS011;4276;49.354;6.804;2023-06-24T10:16:43;3.63;;;3.42;;
8478;SDS011;4276;49.354;6.804;2023-06-24T10:19:10;3.80;;;3.60;;
8478;SDS011;4276;49.354;6.804;2023-06-24T10:21:45;3.70;;;3.50;;
8478;SDS011;4276;49.354;6.804;2023-06-24T10:24:27;4.03;;;3.65;;
8478;SDS011;4276;49.354;6.804;2023-06-24T10:26:54;3.65;;;3.35;;
8478;SDS011;4276;49.354;6.804;2023-06-24T10:29:31;3.95;;;3.65;;
8478;SDS011;4276;49.354;6.804;2023-06-24T10:32:03;3.83;;;3.53;;
8478;SDS011;4276;49.354;6.804;2023-06-24T10:39:35;3.33;;;3.10;;
8478;SDS011;4276;49.354;6.804;2023-06-24T10:44:50;4.32;;;3.97;;
8478;SDS011;4276;49.354;6.804;2023-06-24T10:47:17;4.10;;;3.80;;
8478;SDS011;4276;49.354;6.804;2023-06-24T10:49:43;3.30;;;3.10;;
8478;SDS011;4276;49.354;6.804;2023-06-24T10:52:10;3.33;;;3.13;;
8478;SDS011;4276;49.354;6.804;2023-06-24T10:54:37;3.90;;;3.60;;
8478;SDS011;4276;49.354;6.804;2023-06-24T10:57:05;3.67;;;3.40;;
8478;SDS011;4276;49.354;6.804;2023-06-24T10:59:35;3.30;;;3.10;;
8478;SDS011;4276;49.354;6.804;2023-06-24T11:02:01;3.67;;;3.33;;
8478;SDS011;4276;49.354;6.804;2023-06-24T11:04:28;4.20;;;3.80;;
8478;SDS011;4276;49.354;6.804;2023-06-24T11:06:58;3.95;;;3.65;;
8478;SDS011;4276;49.354;6.804;2023-06-24T11:09:26;3.60;;;3.30;;
8478;SDS011;4276;49.354;6.804;2023-06-24T11:11:52;3.60;;;3.30;;
8478;SDS011;4276;49.354;6.804;2023-06-24T11:14:19;3.78;;;3.58;;
8478;SDS011;4276;49.354;6.804;2023-06-24T11:16:46;4.15;;;3.90;;
8478;SDS011;4276;49.354;6.804;2023-06-24T11:19:12;3.70;;;3.42;;
8478;SDS011;4276;49.354;6.804;2023-06-24T11:21:39;3.60;;;3.40;;
8478;SDS011;4276;49.354;6.804;2023-06-24T11:24:05;4.05;;;3.70;;
8478;SDS011;4276;49.354;6.804;2023-06-24T11:26:32;3.95;;;3.45;;
8478;SDS011;4276;49.354;6.804;2023-06-24T11:28:59;3.33;;;3.13;;
8478;SDS011;4276;49.354;6.804;2023-06-24T11:31:25;3.40;;;3.20;;
8478;SDS011;4276;49.354;6.804;2023-06-24T11:33:52;3.50;;;3.30;;
8478;SDS011;4276;49.354;6.804;2023-06-24T11:36:19;3.38;;;3.17;;
8478;SDS011;4276;49.354;6.804;2023-06-24T11:38:46;3.75;;;3.47;;
8478;SDS011;4276;49.354;6.804;2023-06-24T11:41:13;4.05;;;3.67;;
8478;SDS011;4276;49.354;6.804;2023-06-24T11:43:46;3.50;;;3.20;;
8478;SDS011;4276;49.354;6.804;2023-06-24T11:46:26;3.67;;;3.38;;
8478;SDS011;4276;49.354;6.804;2023-06-24T11:49:11;3.90;;;3.53;;
8478;SDS011;4276;49.354;6.804;2023-06-24T11:51:44;3.25;;;3.05;;
8478;SDS011;4276;49.354;6.804;2023-06-24T11:54:14;3.60;;;3.30;;
8478;SDS011;4276;49.354;6.804;2023-06-24T11:56:42;3.53;;;3.22;;
8478;SDS011;4276;49.354;6.804;2023-06-24T12:01:53;3.25;;;3.05;;
8478;SDS011;4276;49.354;6.804;2023-06-24T12:04:21;3.20;;;3.00;;
8478;SDS011;4276;49.354;6.804;2023-06-24T12:06:48;3.97;;;3.55;;
8478;SDS011;4276;49.354;6.804;2023-06-24T12:09:15;3.45;;;3.00;;
8478;SDS011;4276;49.354;6.804;2023-06-24T12:11:42;3.75;;;3.45;;
8478;SDS011;4276;49.354;6.804;2023-06-24T12:14:08;3.88;;;3.53;;
8478;SDS011;4276;49.354;6.804;2023-06-24T12:16:35;3.70;;;3.40;;
8478;SDS011;4276;49.354;6.804;2023-06-24T12:19:02;3.60;;;3.40;;
8478;SDS011;4276;49.354;6.804;2023-06-24T12:21:28;3.55;;;3.35;;
8478;SDS011;4276;49.354;6.804;2023-06-24T12:23:55;3.85;;;3.55;;
8478;SDS011;4276;49.354;6.804;2023-06-24T12:26:21;4.47;;;3.20;;
8478;SDS011;4276;49.354;6.804;2023-06-24T12:28:48;3.53;;;3.22;;
8478;SDS011;4276;49.354;6.804;2023-06-24T12:31:15;3.55;;;3.35;;
8478;SDS011;4276;49.354;6.804;2023-06-24T12:33:41;3.35;;;3.15;;
8478;SDS011;4276;49.354;6.804;2023-06-24T12:36:08;3.35;;;3.15;;
8478;SDS011;4276;49.354;6.804;2023-06-24T12:38:34;3.70;;;3.40;;
8478;SDS011;4276;49.354;6.804;2023-06-24T12:41:01;3.15;;;2.88;;
8478;SDS011;4276;49.354;6.804;2023-06-24T12:43:28;3.78;;;3.58;;
8478;SDS011;4276;49.354;6.804;2023-06-24T12:45:55;3.65;;;3.35;;
8478;SDS011;4276;49.354;6.804;2023-06-24T12:48:22;3.83;;;3.50;;
8478;SDS011;4276;49.354;6.804;2023-06-24T12:50:49;3.33;;;3.10;;
8478;SDS011;4276;49.354;6.804;2023-06-24T12:53:19;3.40;;;2.97;;
8478;SDS011;4276;49.354;6.804;2023-06-24T12:55:46;3.67;;;3.33;;
8478;SDS011;4276;49.354;6.804;2023-06-24T12:58:22;3.00;;;2.80;;
8478;SDS011;4276;49.354;6.804;2023-06-24T13:00:49;3.55;;;3.35;;
8478;SDS011;4276;49.354;6.804;2023-06-24T13:03:16;3.35;;;3.15;;
8478;SDS011;4276;49.354;6.804;2023-06-24T13:05:42;3.92;;;3.47;;
8478;SDS011;4276;49.354;6.804;2023-06-24T13:08:09;3.67;;;3.47;;
8478;SDS011;4276;49.354;6.804;2023-06-24T13:10:37;3.45;;;3.25;;
8478;SDS011;4276;49.354;6.804;2023-06-24T13:13:04;3.40;;;3.20;;
8478;SDS011;4276;49.354;6.804;2023-06-24T13:15:31;3.70;;;3.40;;
8478;SDS011;4276;49.354;6.804;2023-06-24T13:17:58;3.42;;;3.13;;
8478;SDS011;4276;49.354;6.804;2023-06-24T13:20:24;3.28;;;3.08;;
8478;SDS011;4276;49.354;6.804;2023-06-24T13:22:51;3.45;;;3.25;;
8478;SDS011;4276;49.354;6.804;2023-06-24T13:25:18;3.75;;;3.55;;
8478;SDS011;4276;49.354;6.804;2023-06-24T13:27:44;3.58;;;3.38;;
8478;SDS011;4276;49.354;6.804;2023-06-24T13:30:11;3.85;;;3.53;;
8478;SDS011;4276;49.354;6.804;2023-06-24T13:32:41;3.75;;;3.42;;
8478;SDS011;4276;49.354;6.804;2023-06-24T13:35:07;3.25;;;3.05;;
8478;SDS011;4276;49.354;6.804;2023-06-24T13:37:34;3.47;;;3.17;;
8478;SDS011;4276;49.354;6.804;2023-06-24T13:40:01;3.35;;;3.15;;
8478;SDS011;4276;49.354;6.804;2023-06-24T13:42:27;3.28;;;3.08;;
8478;SDS011;4276;49.354;6.804;2023-06-24T13:44:55;3.70;;;3.40;;
8478;SDS011;4276;49.354;6.804;2023-06-24T13:47:21;4.15;;;3.65;;
8478;SDS011;4276;49.354;6.804;2023-06-24T13:49:49;3.40;;;3.20;;
8478;SDS011;4276;49.354;6.804;2023-06-24T13:52:16;3.97;;;3.63;;
8478;SDS011;4276;49.354;6.804;2023-06-24T13:54:42;3.80;;;3.60;;
8478;SDS011;4276;49.354;6.804;2023-06-24T13:57:09;3.42;;;3.17;;
8478;SDS011;4276;49.354;6.804;2023-06-24T13:59:35;3.40;;;3.20;;
8478;SDS011;4276;49.354;6.804;2023-06-24T14:02:02;3.42;;;3.13;;
8478;SDS011;4276;49.354;6.804;2023-06-24T14:04:30;3.30;;;3.10;;
8478;SDS011;4276;49.354;6.804;2023-06-24T14:06:56;3.53;;;3.22;;
8478;SDS011;4276;49.354;6.804;2023-06-24T14:09:23;3.20;;;3.05;;
8478;SDS011;4276;49.354;6.804;2023-06-24T14:11:49;3.20;;;3.00;;
8478;SDS011;4276;49.354;6.804;2023-06-24T14:14:16;3.47;;;3.10;;
8478;SDS011;4276;49.354;6.804;2023-06-24T14:16:43;3.35;;;3.05;;
8478;SDS011;4276;49.354;6.804;2023-06-24T14:19:09;3.72;;;3.40;;
8478;SDS011;4276;49.354;6.804;2023-06-24T14:21:36;4.18;;;3.60;;
8478;SDS011;4276;49.354;6.804;2023-06-24T14:24:04;4.13;;;3.53;;
8478;SDS011;4276;49.354;6.804;2023-06-24T14:26:41;4.35;;;3.53;;
8478;SDS011;4276;49.354;6.804;2023-06-24T14:29:08;3.42;;;3.13;;
8478;SDS011;4276;49.354;6.804;2023-06-24T14:31:35;3.58;;;3.28;;
8478;SDS011;4276;49.354;6.804;2023-06-24T14:34:01;3.70;;;3.40;;
8478;SDS011;4276;49.354;6.804;2023-06-24T14:36:27;3.45;;;3.25;;
8478;SDS011;4276;49.354;6.804;2023-06-24T14:38:54;6.03;;;3.80;;
8478;SDS011;4276;49.354;6.804;2023-06-24T14:41:20;3.40;;;3.13;;
8478;SDS011;4276;49.354;6.804;2023-06-24T14:43:47;3.75;;;3.45;;
8478;SDS011;4276;49.354;6.804;2023-06-24T14:46:13;3.95;;;3.65;;
8478;SDS011;4276;49.354;6.804;2023-06-24T14:48:40;3.47;;;3.28;;
8478;SDS011;4276;49.354;6.804;2023-06-24T14:51:06;3.85;;;3.65;;
8478;SDS011;4276;49.354;6.804;2023-06-24T14:53:33;3.50;;;3.30;;
8478;SDS011;4276;49.354;6.804;2023-06-24T14:55:59;3.60;;;3.30;;
8478;SDS011;4276;49.354;6.804;2023-06-24T14:58:26;4.07;;;3.72;;
8478;SDS011;4276;49.354;6.804;2023-06-24T15:00:52;4.40;;;3.58;;
8478;SDS011;4276;49.354;6.804;2023-06-24T15:03:19;3.97;;;3.65;;
8478;SDS011;4276;49.354;6.804;2023-06-24T15:05:47;3.50;;;3.20;;
8478;SDS011;4276;49.354;6.804;2023-06-24T15:08:13;4.32;;;3.65;;
8478;SDS011;4276;49.354;6.804;2023-06-24T15:10:40;3.55;;;3.33;;
8478;SDS011;4276;49.354;6.804;2023-06-24T15:13:06;3.97;;;3.67;;
8478;SDS011;4276;49.354;6.804;2023-06-24T15:15:33;3.58;;;3.38;;
8478;SDS011;4276;49.354;6.804;2023-06-24T15:18:00;4.10;;;3.80;;
8478;SDS011;4276;49.354;6.804;2023-06-24T15:20:26;3.63;;;3.33;;
8478;SDS011;4276;49.354;6.804;2023-06-24T15:22:53;3.38;;;3.17;;
8478;SDS011;4276;49.354;6.804;2023-06-24T15:25:19;3.40;;;3.20;;
8478;SDS011;4276;49.354;6.804;2023-06-24T15:27:46;3.97;;;3.67;;
8478;SDS011;4276;49.354;6.804;2023-06-24T15:30:12;5.07;;;3.70;;
8478;SDS011;4276;49.354;6.804;2023-06-24T15:32:39;3.65;;;3.45;;
8478;SDS011;4276;49.354;6.804;2023-06-24T15:35:06;3.78;;;3.50;;